Terminal Aerodrome Forecast
Issued by NWS

Home | Current Version | Previous Version | Text Only | Print | Product List | Glossary On
Versions: 1 2 3 4 5 6 7 8 9 10 11 12 13 14 15 16 17 18 19 20 21 22 23 24 25 26 27
000
FTUS46 KLOX 061142
TAFSBA
TAF
KSBA 061142Z 0612/0712 VRB03KT P6SM -SHRA SCT025 OVC050
     FM061500 17005KT P6SM -SHRA SCT012 SCT025 OVC050
      TEMPO 0617/0619 6SM -SHRA BKN025 OVC040
     FM062100 24007KT P6SM VCSH SCT025 OVC050
     FM070400 VRB03KT P6SM VCSH SCT025 BKN050
     FM071000 VRB03KT P6SM BKN012 OVC025=

USA.gov is the U.S. government's official web portal to all federal, state and local government web resources and services.